sensor_id;sensor_type;location;lat;lon;timestamp;P1;durP1;ratioP1;P2;durP2;ratioP2
14776;SDS011;7480;43.124;25.686;2022-10-31T07:47:30;7.93;;;3.87;;
14776;SDS011;7480;43.124;25.686;2022-10-31T07:50:07;3.93;;;2.83;;
14776;SDS011;7480;43.124;25.686;2022-10-31T07:52:35;7.53;;;3.27;;
14776;SDS011;7480;43.124;25.686;2022-10-31T07:55:02;3.80;;;2.73;;
14776;SDS011;7480;43.124;25.686;2022-10-31T07:57:30;4.20;;;3.07;;
14776;SDS011;7480;43.124;25.686;2022-10-31T07:59:59;8.77;;;3.90;;
14776;SDS011;7480;43.124;25.686;2022-10-31T08:02:26;6.13;;;3.47;;
14776;SDS011;7480;43.124;25.686;2022-10-31T08:04:53;5.67;;;3.43;;
14776;SDS011;7480;43.124;25.686;2022-10-31T08:34:17;5.70;;;3.20;;
14776;SDS011;7480;43.124;25.686;2022-10-31T08:36:44;7.13;;;3.10;;
14776;SDS011;7480;43.124;25.686;2022-10-31T08:39:12;4.90;;;3.80;;
14776;SDS011;7480;43.124;25.686;2022-10-31T08:44:05;6.13;;;3.20;;
14776;SDS011;7480;43.124;25.686;2022-10-31T08:46:32;6.50;;;2.80;;
14776;SDS011;7480;43.124;25.686;2022-10-31T08:48:58;3.67;;;3.00;;
14776;SDS011;7480;43.124;25.686;2022-10-31T08:51:25;4.30;;;2.90;;
14776;SDS011;7480;43.124;25.686;2022-10-31T08:53:52;5.93;;;2.73;;
14776;SDS011;7480;43.124;25.686;2022-10-31T08:56:18;3.17;;;2.70;;
14776;SDS011;7480;43.124;25.686;2022-10-31T08:58:45;3.87;;;3.07;;
14776;SDS011;7480;43.124;25.686;2022-10-31T09:01:11;4.17;;;2.97;;
14776;SDS011;7480;43.124;25.686;2022-10-31T09:03:38;3.77;;;2.77;;
14776;SDS011;7480;43.124;25.686;2022-10-31T09:06:05;3.83;;;2.80;;
14776;SDS011;7480;43.124;25.686;2022-10-31T09:08:35;5.03;;;2.97;;
14776;SDS011;7480;43.124;25.686;2022-10-31T09:11:03;7.93;;;3.73;;
14776;SDS011;7480;43.124;25.686;2022-10-31T09:13:30;4.70;;;3.40;;
14776;SDS011;7480;43.124;25.686;2022-10-31T09:15:57;5.57;;;3.37;;
14776;SDS011;7480;43.124;25.686;2022-10-31T09:18:25;3.70;;;3.10;;
14776;SDS011;7480;43.124;25.686;2022-10-31T09:20:54;4.87;;;3.70;;
14776;SDS011;7480;43.124;25.686;2022-10-31T09:23:23;3.93;;;2.97;;
14776;SDS011;7480;43.124;25.686;2022-10-31T09:25:50;3.80;;;3.00;;
14776;SDS011;7480;43.124;25.686;2022-10-31T09:28:19;3.87;;;3.30;;
14776;SDS011;7480;43.124;25.686;2022-10-31T09:30:48;5.83;;;4.03;;
14776;SDS011;7480;43.124;25.686;2022-10-31T09:33:16;7.47;;;3.50;;
14776;SDS011;7480;43.124;25.686;2022-10-31T09:35:43;4.57;;;3.57;;
14776;SDS011;7480;43.124;25.686;2022-10-31T09:38:14;4.00;;;3.57;;
14776;SDS011;7480;43.124;25.686;2022-10-31T09:40:44;4.17;;;3.13;;
14776;SDS011;7480;43.124;25.686;2022-10-31T09:51:49;6.17;;;3.47;;
14776;SDS011;7480;43.124;25.686;2022-10-31T09:54:11;6.47;;;2.83;;
14776;SDS011;7480;43.124;25.686;2022-10-31T09:56:40;8.00;;;3.33;;
14776;SDS011;7480;43.124;25.686;2022-10-31T09:59:12;7.67;;;3.47;;
14776;SDS011;7480;43.124;25.686;2022-10-31T10:01:47;5.40;;;3.35;;
14776;SDS011;7480;43.124;25.686;2022-10-31T10:07:02;4.67;;;3.37;;
14776;SDS011;7480;43.124;25.686;2022-10-31T10:09:53;6.30;;;2.47;;
14776;SDS011;7480;43.124;25.686;2022-10-31T10:20:31;3.47;;;2.63;;
14776;SDS011;7480;43.124;25.686;2022-10-31T10:23:18;3.27;;;2.20;;
14776;SDS011;7480;43.124;25.686;2022-10-31T10:26:12;4.70;;;2.90;;
14776;SDS011;7480;43.124;25.686;2022-10-31T10:28:45;5.20;;;3.10;;
14776;SDS011;7480;43.124;25.686;2022-10-31T10:31:16;4.87;;;3.10;;
14776;SDS011;7480;43.124;25.686;2022-10-31T10:36:37;4.15;;;2.35;;
14776;SDS011;7480;43.124;25.686;2022-10-31T10:39:16;3.15;;;2.30;;
14776;SDS011;7480;43.124;25.686;2022-10-31T10:41:50;3.22;;;2.60;;
14776;SDS011;7480;43.124;25.686;2022-10-31T10:44:39;4.13;;;3.10;;
14776;SDS011;7480;43.124;25.686;2022-10-31T10:47:27;3.50;;;2.53;;
14776;SDS011;7480;43.124;25.686;2022-10-31T10:50:23;2.90;;;2.60;;
14776;SDS011;7480;43.124;25.686;2022-10-31T10:58:06;5.60;;;2.60;;
14776;SDS011;7480;43.124;25.686;2022-10-31T11:00:34;3.25;;;2.50;;
14776;SDS011;7480;43.124;25.686;2022-10-31T11:03:06;4.72;;;3.08;;
14776;SDS011;7480;43.124;25.686;2022-10-31T11:11:04;2.67;;;2.47;;
14776;SDS011;7480;43.124;25.686;2022-10-31T11:13:34;2.65;;;2.45;;
14776;SDS011;7480;43.124;25.686;2022-10-31T11:16:02;3.27;;;2.43;;
14776;SDS011;7480;43.124;25.686;2022-10-31T11:18:34;5.80;;;2.70;;
14776;SDS011;7480;43.124;25.686;2022-10-31T11:21:04;4.67;;;2.60;;
14776;SDS011;7480;43.124;25.686;2022-10-31T11:23:31;4.37;;;2.63;;
14776;SDS011;7480;43.124;25.686;2022-10-31T11:26:00;8.80;;;2.67;;
14776;SDS011;7480;43.124;25.686;2022-10-31T11:28:31;2.97;;;2.40;;
14776;SDS011;7480;43.124;25.686;2022-10-31T11:31:05;4.60;;;2.73;;
14776;SDS011;7480;43.124;25.686;2022-10-31T11:36:18;6.10;;;2.73;;
14776;SDS011;7480;43.124;25.686;2022-10-31T11:38:47;3.03;;;2.33;;
14776;SDS011;7480;43.124;25.686;2022-10-31T11:41:18;2.93;;;2.63;;
14776;SDS011;7480;43.124;25.686;2022-10-31T11:43:56;3.33;;;2.30;;
14776;SDS011;7480;43.124;25.686;2022-10-31T11:46:38;4.73;;;2.67;;
14776;SDS011;7480;43.124;25.686;2022-10-31T11:49:11;2.40;;;1.93;;
14776;SDS011;7480;43.124;25.686;2022-10-31T11:51:42;8.83;;;2.53;;
14776;SDS011;7480;43.124;25.686;2022-10-31T11:54:18;4.77;;;2.60;;
14776;SDS011;7480;43.124;25.686;2022-10-31T11:56:46;4.17;;;2.40;;
14776;SDS011;7480;43.124;25.686;2022-10-31T11:59:28;4.25;;;2.90;;
14776;SDS011;7480;43.124;25.686;2022-10-31T12:02:00;3.05;;;2.50;;
14776;SDS011;7480;43.124;25.686;2022-10-31T12:07:03;5.35;;;3.42;;
14776;SDS011;7480;43.124;25.686;2022-10-31T12:09:30;4.72;;;3.17;;
14776;SDS011;7480;43.124;25.686;2022-10-31T12:17:29;3.67;;;2.80;;
14776;SDS011;7480;43.124;25.686;2022-10-31T12:23:06;6.53;;;3.22;;
14776;SDS011;7480;43.124;25.686;2022-10-31T12:35:45;7.05;;;4.68;;
14776;SDS011;7480;43.124;25.686;2022-10-31T12:58:07;3.73;;;2.93;;
14776;SDS011;7480;43.124;25.686;2022-10-31T13:00:38;4.30;;;2.55;;
14776;SDS011;7480;43.124;25.686;2022-10-31T13:05:46;7.93;;;3.27;;
14776;SDS011;7480;43.124;25.686;2022-10-31T13:08:17;4.27;;;2.90;;
14776;SDS011;7480;43.124;25.686;2022-10-31T13:10:49;6.07;;;3.00;;
14776;SDS011;7480;43.124;25.686;2022-10-31T13:13:26;5.33;;;2.77;;
14776;SDS011;7480;43.124;25.686;2022-10-31T13:16:14;4.17;;;3.13;;
14776;SDS011;7480;43.124;25.686;2022-10-31T13:18:47;4.30;;;3.33;;
14776;SDS011;7480;43.124;25.686;2022-10-31T13:21:26;4.23;;;3.27;;
14776;SDS011;7480;43.124;25.686;2022-10-31T13:23:54;4.37;;;2.83;;
14776;SDS011;7480;43.124;25.686;2022-10-31T13:26:23;4.53;;;3.70;;
14776;SDS011;7480;43.124;25.686;2022-10-31T13:31:28;5.67;;;3.17;;
14776;SDS011;7480;43.124;25.686;2022-10-31T13:34:00;5.90;;;3.77;;
14776;SDS011;7480;43.124;25.686;2022-10-31T13:39:04;5.60;;;3.17;;
14776;SDS011;7480;43.124;25.686;2022-10-31T13:41:42;6.00;;;3.57;;
14776;SDS011;7480;43.124;25.686;2022-10-31T13:44:16;6.83;;;3.33;;
14776;SDS011;7480;43.124;25.686;2022-10-31T13:47:04;5.77;;;3.50;;
14776;SDS011;7480;43.124;25.686;2022-10-31T13:50:18;6.90;;;3.80;;
14776;SDS011;7480;43.124;25.686;2022-10-31T13:52:45;6.50;;;3.93;;
14776;SDS011;7480;43.124;25.686;2022-10-31T13:55:34;5.67;;;3.63;;
14776;SDS011;7480;43.124;25.686;2022-10-31T14:03:37;7.50;;;4.07;;
14776;SDS011;7480;43.124;25.686;2022-10-31T14:06:34;5.97;;;3.40;;
14776;SDS011;7480;43.124;25.686;2022-10-31T14:09:02;5.07;;;3.03;;
14776;SDS011;7480;43.124;25.686;2022-10-31T14:11:29;5.37;;;3.10;;
14776;SDS011;7480;43.124;25.686;2022-10-31T14:14:08;10.63;;;3.10;;
14776;SDS011;7480;43.124;25.686;2022-10-31T14:16:36;5.40;;;3.33;;
14776;SDS011;7480;43.124;25.686;2022-10-31T14:19:06;5.60;;;3.40;;
14776;SDS011;7480;43.124;25.686;2022-10-31T14:21:38;5.47;;;3.30;;
14776;SDS011;7480;43.124;25.686;2022-10-31T14:24:41;8.53;;;3.50;;
14776;SDS011;7480;43.124;25.686;2022-10-31T14:29:47;9.17;;;3.43;;
14776;SDS011;7480;43.124;25.686;2022-10-31T14:45:33;7.57;;;3.93;;
14776;SDS011;7480;43.124;25.686;2022-10-31T14:48:23;8.83;;;3.53;;
14776;SDS011;7480;43.124;25.686;2022-10-31T14:50:58;6.77;;;4.37;;
14776;SDS011;7480;43.124;25.686;2022-10-31T14:53:26;13.07;;;4.00;;
14776;SDS011;7480;43.124;25.686;2022-10-31T14:56:01;6.93;;;4.13;;
14776;SDS011;7480;43.124;25.686;2022-10-31T15:00:58;10.33;;;4.17;;
14776;SDS011;7480;43.124;25.686;2022-10-31T15:03:42;7.57;;;4.20;;
14776;SDS011;7480;43.124;25.686;2022-10-31T15:06:35;4.33;;;3.70;;
14776;SDS011;7480;43.124;25.686;2022-10-31T15:09:24;9.03;;;4.43;;
14776;SDS011;7480;43.124;25.686;2022-10-31T15:11:52;6.57;;;4.33;;
14776;SDS011;7480;43.124;25.686;2022-10-31T15:14:23;9.40;;;4.43;;
14776;SDS011;7480;43.124;25.686;2022-10-31T15:16:52;8.00;;;4.50;;
14776;SDS011;7480;43.124;25.686;2022-10-31T15:19:23;9.93;;;4.03;;
14776;SDS011;7480;43.124;25.686;2022-10-31T15:21:52;6.60;;;4.27;;
